createdAt,value
2022-09-09T00:01:42.786Z,5.67
2022-09-09T00:07:23.322Z,5.17
2022-09-09T00:12:41.534Z,4.77
2022-09-09T00:18:25.973Z,5.60
2022-09-09T00:23:32.409Z,6.27
2022-09-09T00:28:57.121Z,5.77
2022-09-09T00:34:12.116Z,6.17
2022-09-09T00:39:32.571Z,5.93
2022-09-09T00:44:42.421Z,5.77
2022-09-09T00:50:04.046Z,6.30
2022-09-09T00:55:36.606Z,6.43
2022-09-09T01:01:09.493Z,6.20
2022-09-09T01:06:35.994Z,6.77
2022-09-09T01:12:04.750Z,7.73
2022-09-09T01:18:00.143Z,6.03
2022-09-09T01:23:10.315Z,6.77
2022-09-09T01:28:23.792Z,6.80
2022-09-09T01:33:27.964Z,6.50
2022-09-09T01:38:35.690Z,6.40
2022-09-09T01:43:43.514Z,6.97
2022-09-09T01:48:48.324Z,7.20
2022-09-09T01:53:52.521Z,7.87
2022-09-09T01:59:05.920Z,6.97
2022-09-09T02:04:31.455Z,7.63
2022-09-09T02:09:38.302Z,7.97
2022-09-09T02:14:50.951Z,9.27
2022-09-09T02:20:07.193Z,8.83
2022-09-09T02:25:15.505Z,9.60
2022-09-09T02:30:22.091Z,10.17
2022-09-09T02:35:29.409Z,11.17
2022-09-09T02:40:35.744Z,11.47
2022-09-09T02:46:17.121Z,11.83
2022-09-09T02:51:39.553Z,12.57
2022-09-09T02:56:49.835Z,12.17
2022-09-09T03:01:55.254Z,11.63
2022-09-09T03:07:02.290Z,11.43
2022-09-09T03:12:08.253Z,10.73
2022-09-09T03:17:12.500Z,10.63
2022-09-09T03:22:16.723Z,11.33
2022-09-09T03:27:21.933Z,10.03
2022-09-09T03:32:27.843Z,10.57
2022-09-09T03:37:34.223Z,10.47
2022-09-09T03:42:39.606Z,10.83
2022-09-09T03:47:42.921Z,10.03
2022-09-09T03:52:49.366Z,10.73
2022-09-09T03:57:54.496Z,9.63
2022-09-09T04:02:58.978Z,10.63
2022-09-09T04:08:03.482Z,10.97
2022-09-09T04:13:08.021Z,11.40
2022-09-09T04:18:16.943Z,11.00
2022-09-09T04:23:25.399Z,10.67
2022-09-09T04:28:33.736Z,10.60
2022-09-09T04:33:40.380Z,10.13
2022-09-09T04:38:46.171Z,10.03
2022-09-09T04:43:50.067Z,10.80
2022-09-09T04:48:54.401Z,11.13
2022-09-09T04:53:58.511Z,11.23
2022-09-09T04:59:05.453Z,11.40
2022-09-09T05:04:10.359Z,11.47
2022-09-09T05:09:14.089Z,10.90
2022-09-09T05:14:19.218Z,12.27
2022-09-09T05:19:22.789Z,12.70
2022-09-09T05:24:26.611Z,12.23
2022-09-09T05:29:31.206Z,12.73
2022-09-09T05:34:35.121Z,13.87
2022-09-09T05:39:39.884Z,15.53
2022-09-09T05:44:44.720Z,15.20
2022-09-09T05:49:51.332Z,16.07
2022-09-09T05:54:57.016Z,15.40
2022-09-09T06:00:01.709Z,16.20
2022-09-09T06:05:06.839Z,16.03
2022-09-09T06:10:15.998Z,16.07
2022-09-09T06:15:19.565Z,16.47
2022-09-09T06:20:23.950Z,17.17
2022-09-09T06:25:27.316Z,16.53
2022-09-09T06:30:31.456Z,16.67
2022-09-09T06:35:34.778Z,16.93
2022-09-09T06:40:38.630Z,16.73
2022-09-09T06:45:42.201Z,17.13
2022-09-09T06:50:46.209Z,17.07
2022-09-09T06:55:52.482Z,17.77
2022-09-09T07:01:16.090Z,17.77
2022-09-09T07:06:25.752Z,16.67
2022-09-09T07:11:33.082Z,17.70
2022-09-09T07:16:38.959Z,16.67
2022-09-09T07:21:45.651Z,16.67
2022-09-09T07:26:49.839Z,16.53
2022-09-09T07:31:53.591Z,17.27
2022-09-09T07:36:59.471Z,18.03
2022-09-09T07:42:03.231Z,17.63
2022-09-09T07:47:07.861Z,17.83
2022-09-09T07:52:13.291Z,19.17
2022-09-09T07:57:19.548Z,19.17
2022-09-09T08:02:27.439Z,18.87
2022-09-09T08:07:34.900Z,19.27
2022-09-09T08:12:38.611Z,21.07
2022-09-09T08:17:42.266Z,21.43
2022-09-09T08:22:46.461Z,22.17
2022-09-09T08:27:50.579Z,19.83
2022-09-09T08:32:55.471Z,20.80
2022-09-09T08:38:07.618Z,21.23
2022-09-09T08:43:14.599Z,20.30
2022-09-09T08:48:39.936Z,21.10
2022-09-09T08:53:54.413Z,22.03
2022-09-09T08:59:02.056Z,21.70
2022-09-09T09:04:34.600Z,21.87
2022-09-09T09:10:00.591Z,20.97
2022-09-09T09:15:18.530Z,23.57
2022-09-09T09:20:49.252Z,22.17
2022-09-09T09:25:58.903Z,22.40
2022-09-09T09:31:10.728Z,25.00
2022-09-09T09:36:19.196Z,24.30
2022-09-09T09:41:42.599Z,23.07
2022-09-09T09:46:47.239Z,23.47
2022-09-09T09:51:51.508Z,25.03
2022-09-09T09:56:56.070Z,23.87
2022-09-09T10:02:28.821Z,24.67
2022-09-09T10:07:33.620Z,24.07
2022-09-09T10:13:13.383Z,24.70
2022-09-09T10:18:30.211Z,26.60
2022-09-09T10:24:28.458Z,24.80
2022-09-09T10:29:54.623Z,26.53
2022-09-09T10:35:30.689Z,26.30
2022-09-09T10:40:40.642Z,24.77
2022-09-09T10:46:15.637Z,24.30
2022-09-09T10:51:29.991Z,22.33
2022-09-09T10:57:08.191Z,19.70
2022-09-09T11:02:28.477Z,20.77
2022-09-09T11:07:50.916Z,20.77
2022-09-09T11:13:02.660Z,20.27
2022-09-09T11:18:24.907Z,20.85
2022-09-09T11:23:44.721Z,20.60
2022-09-09T11:29:27.863Z,20.48
2022-09-09T11:35:19.502Z,21.13
2022-09-09T11:40:27.186Z,19.70
2022-09-09T11:45:33.216Z,19.65
2022-09-09T11:50:42.884Z,16.77
2022-09-09T11:55:46.251Z,16.85
2022-09-09T12:00:57.200Z,17.05
2022-09-09T12:06:47.838Z,17.08
2022-09-09T12:11:52.498Z,17.63
2022-09-09T12:16:58.981Z,17.40
2022-09-09T12:22:18.791Z,17.52
2022-09-09T12:27:47.326Z,18.58
2022-09-09T12:33:02.803Z,16.77
2022-09-09T12:38:13.085Z,15.20
2022-09-09T12:43:25.383Z,17.20
2022-09-09T12:48:49.607Z,16.92
2022-09-09T12:53:53.854Z,16.70
2022-09-09T12:58:59.870Z,16.23
2022-09-09T13:04:23.458Z,16.27
2022-09-09T13:09:28.297Z,17.48
2022-09-09T13:14:44.094Z,16.73
2022-09-09T13:19:57.592Z,14.55
2022-09-09T13:25:13.362Z,13.80
2022-09-09T13:30:38.044Z,15.40
2022-09-09T13:35:51.538Z,14.27
2022-09-09T13:41:08.136Z,15.50
2022-09-09T13:46:32.844Z,16.13
2022-09-09T13:51:41.295Z,15.15
2022-09-09T13:56:46.291Z,14.60
2022-09-09T14:01:54.026Z,15.45
2022-09-09T14:06:59.896Z,14.57
2022-09-09T14:12:04.326Z,15.32
2022-09-09T14:17:12.346Z,15.55
2022-09-09T14:22:16.584Z,15.13
2022-09-09T14:27:20.557Z,15.32
2022-09-09T14:32:28.397Z,15.55
2022-09-09T14:37:37.549Z,17.98
2022-09-09T14:42:42.167Z,17.02
2022-09-09T14:47:46.915Z,16.42
2022-09-09T14:52:50.670Z,17.08
2022-09-09T14:57:54.736Z,17.00
2022-09-09T15:02:58.916Z,17.67
2022-09-09T15:08:02.857Z,18.33
2022-09-09T15:13:06.887Z,20.27
2022-09-09T15:18:10.837Z,19.30
2022-09-09T15:23:15.853Z,19.58
2022-09-09T15:28:19.567Z,19.33
2022-09-09T15:33:24.375Z,19.45
2022-09-09T15:38:30.326Z,18.80
2022-09-09T15:43:33.726Z,19.38
2022-09-09T15:53:43.797Z,18.92
2022-09-09T15:58:47.420Z,18.67
2022-09-09T16:03:52.356Z,19.00
2022-09-09T16:08:57.716Z,17.75
2022-09-09T16:14:02.036Z,17.08
2022-09-09T16:19:08.487Z,17.98
2022-09-09T16:24:15.116Z,17.10
2022-09-09T16:29:20.686Z,18.73
2022-09-09T16:34:24.246Z,18.20
2022-09-09T16:39:27.806Z,19.70
2022-09-09T16:44:31.636Z,19.60
2022-09-09T16:49:36.479Z,20.00
2022-09-09T16:54:39.897Z,21.27
2022-09-09T16:59:43.307Z,20.57
2022-09-09T17:04:46.830Z,20.37
2022-09-09T17:09:50.387Z,21.50
2022-09-09T17:14:53.977Z,21.63
2022-09-09T17:19:57.566Z,21.53
2022-09-09T17:25:02.115Z,21.60
2022-09-09T17:30:06.646Z,21.13
2022-09-09T17:35:10.743Z,22.03
2022-09-09T17:40:15.317Z,21.10
2022-09-09T17:45:18.667Z,20.87
2022-09-09T17:50:22.526Z,20.33
2022-09-09T17:55:27.067Z,20.10
2022-09-09T18:00:31.746Z,21.90
2022-09-09T18:05:35.127Z,21.57
2022-09-09T18:10:38.671Z,21.93
2022-09-09T18:15:49.337Z,22.83
2022-09-09T18:21:08.400Z,22.53
2022-09-09T18:26:14.586Z,24.77
2022-09-09T18:31:19.829Z,24.17
2022-09-09T18:36:30.466Z,23.13
2022-09-09T18:41:36.804Z,24.97
2022-09-09T18:46:42.275Z,23.73
2022-09-09T18:51:47.328Z,25.27
2022-09-09T18:56:51.696Z,25.43
2022-09-09T19:01:55.833Z,26.43
2022-09-09T19:06:59.691Z,25.97
2022-09-09T19:12:03.627Z,25.47
2022-09-09T19:17:10.617Z,24.77
2022-09-09T19:22:15.444Z,29.37
2022-09-09T19:27:20.526Z,28.63
2022-09-09T19:37:50.696Z,30.60
2022-09-09T19:42:55.174Z,31.70
2022-09-09T19:48:03.257Z,31.43
2022-09-09T19:53:07.364Z,32.83
2022-09-09T19:58:10.667Z,33.83
2022-09-09T20:03:19.475Z,34.93
2022-09-09T20:08:23.926Z,34.80
2022-09-09T20:13:27.503Z,39.17
2022-09-09T20:18:33.415Z,38.03
2022-09-09T20:23:37.817Z,39.67
2022-09-09T20:28:43.025Z,37.83
2022-09-09T20:33:47.922Z,37.77
2022-09-09T20:38:58.452Z,40.10
2022-09-09T20:44:05.157Z,41.13
2022-09-09T20:49:11.649Z,39.97
2022-09-09T20:54:24.729Z,40.80
2022-09-09T20:59:30.953Z,41.60
2022-09-09T21:04:33.982Z,39.87
2022-09-09T21:09:37.352Z,39.73
2022-09-09T21:14:43.384Z,39.67
2022-09-09T21:19:47.930Z,39.67
2022-09-09T21:24:51.876Z,40.07
2022-09-09T21:29:55.456Z,39.13
2022-09-09T21:35:00.098Z,39.60
2022-09-09T21:40:03.742Z,37.53
2022-09-09T21:45:07.775Z,39.07
2022-09-09T21:50:11.406Z,38.80
2022-09-09T21:55:16.096Z,37.63
2022-09-09T22:00:19.636Z,37.90
2022-09-09T22:05:23.433Z,38.53
2022-09-09T22:10:30.227Z,38.87
2022-09-09T22:15:33.988Z,36.70
2022-09-09T22:20:42.546Z,36.77
2022-09-09T22:25:45.851Z,35.80
2022-09-09T22:30:49.651Z,37.93
2022-09-09T22:35:53.172Z,35.10
2022-09-09T22:40:57.266Z,34.20
2022-09-09T22:46:04.900Z,35.40
2022-09-09T22:51:11.847Z,36.60
2022-09-09T22:56:20.143Z,36.47
2022-09-09T23:01:25.811Z,34.50
2022-09-09T23:06:30.737Z,36.93
2022-09-09T23:11:37.935Z,34.97
2022-09-09T23:16:44.727Z,33.43
2022-09-09T23:21:49.207Z,36.53
2022-09-09T23:26:53.596Z,35.90
2022-09-09T23:31:57.066Z,38.27
2022-09-09T23:37:00.588Z,40.23
2022-09-09T23:42:06.353Z,41.00
2022-09-09T23:47:10.747Z,39.07
2022-09-09T23:52:14.906Z,40.70
2022-09-09T23:57:18.365Z,40.33
